Time;durP1;ratioP1;P1;durP2;ratioP2;P2;SDS_P1;SDS_P2;PMS_P1;PMS_P2;Temp;Humidity;BMP_temperature;BMP_pressure;BME280_temperature;BME280_humidity;BME280_pressure;Samples;Min_cycle;Max_cycle;Signal;HPM_P1;HPM_P2
2023/12/28 00:00:37;;;;;;;10.90;10.40;;;;;;;;;;5071080;28;20025;-56
2023/12/28 00:03:02;;;;;;;10.70;10.20;;;;;;;;;;5071287;28;20106;-56
2023/12/28 00:05:28;;;;;;;11.32;10.73;;;;;;;;;;5064601;28;20013;-55
2023/12/28 00:07:57;;;;;;;10.65;10.15;;;;;;;;;;5071935;28;20548;-55
2023/12/28 00:10:26;;;;;;;10.70;10.20;;;;;;;;;;5068166;28;20035;-57
2023/12/28 00:12:51;;;;;;;10.88;10.38;;;;;;;;;;5063909;28;20033;-58
2023/12/28 00:15:17;;;;;;;10.88;10.38;;;;;;;;;;5071525;28;20024;-57
2023/12/28 00:17:42;;;;;;;10.90;10.40;;;;;;;;;;5076136;28;20052;-56
2023/12/28 00:20:08;;;;;;;11.35;10.75;;;;;;;;;;5069146;28;20013;-56
2023/12/28 00:22:33;;;;;;;10.70;10.20;;;;;;;;;;5058312;28;20029;-56
2023/12/28 00:24:58;;;;;;;10.70;10.20;;;;;;;;;;5063663;28;20096;-56
2023/12/28 00:27:23;;;;;;;10.40;9.90;;;;;;;;;;5069826;28;20025;-55
2023/12/28 00:29:49;;;;;;;10.63;10.13;;;;;;;;;;5060008;28;20585;-56
2023/12/28 00:32:14;;;;;;;11.30;10.70;;;;;;;;;;5068417;28;20028;-57
2023/12/28 00:34:39;;;;;;;11.60;11.00;;;;;;;;;;5062877;28;20365;-57
2023/12/28 00:37:05;;;;;;;11.20;10.70;;;;;;;;;;5069026;28;20028;-57
2023/12/28 00:39:30;;;;;;;11.00;10.50;;;;;;;;;;5068554;28;20078;-57
2023/12/28 00:41:56;;;;;;;11.55;11.00;;;;;;;;;;5070944;28;20016;-56
2023/12/28 00:44:21;;;;;;;10.88;10.38;;;;;;;;;;5070297;28;20032;-58
2023/12/28 00:46:46;;;;;;;11.27;10.68;;;;;;;;;;5070148;28;20040;-56
2023/12/28 00:49:12;;;;;;;10.45;9.95;;;;;;;;;;5065339;28;20551;-57
2023/12/28 00:51:37;;;;;;;10.82;10.32;;;;;;;;;;5070762;28;20104;-57
2023/12/28 00:54:02;;;;;;;10.73;10.23;;;;;;;;;;5069656;28;20063;-56
2023/12/28 00:56:28;;;;;;;10.57;10.07;;;;;;;;;;5068225;28;20115;-57
2023/12/28 00:58:53;;;;;;;11.40;10.80;;;;;;;;;;5067982;28;20025;-54
2023/12/28 01:01:19;;;;;;;10.70;10.20;;;;;;;;;;5070366;28;20476;-58
2023/12/28 01:03:44;;;;;;;10.85;10.35;;;;;;;;;;5074215;28;20067;-58
2023/12/28 01:06:09;;;;;;;10.85;10.35;;;;;;;;;;5063049;28;20017;-58
2023/12/28 01:08:35;;;;;;;11.18;10.57;;;;;;;;;;5068451;28;20025;-58
2023/12/28 01:11:01;;;;;;;12.85;12.13;;;;;;;;;;5075231;28;20021;-56
2023/12/28 01:13:27;;;;;;;10.43;9.93;;;;;;;;;;5070306;28;20025;-56
2023/12/28 01:15:52;;;;;;;10.38;9.88;;;;;;;;;;5068167;28;20036;-54
2023/12/28 01:18:18;;;;;;;10.95;10.45;;;;;;;;;;5067044;28;20061;-55
2023/12/28 01:20:43;;;;;;;10.60;10.10;;;;;;;;;;5064390;28;20105;-56
2023/12/28 01:23:08;;;;;;;10.68;10.18;;;;;;;;;;5064089;28;20024;-56
2023/12/28 01:25:34;;;;;;;10.65;10.15;;;;;;;;;;5067645;28;20528;-55
2023/12/28 01:28:00;;;;;;;10.95;10.45;;;;;;;;;;5070473;28;20032;-56
2023/12/28 01:30:26;;;;;;;10.70;10.20;;;;;;;;;;5060456;28;20039;-56
2023/12/28 01:32:51;;;;;;;11.20;10.60;;;;;;;;;;5066976;28;20055;-57
2023/12/28 01:35:16;;;;;;;10.95;10.45;;;;;;;;;;5070015;28;20012;-55
2023/12/28 01:37:42;;;;;;;10.68;10.18;;;;;;;;;;5070010;28;20076;-55
2023/12/28 01:40:09;;;;;;;10.90;10.40;;;;;;;;;;5068427;28;20036;-53
2023/12/28 01:42:35;;;;;;;10.48;9.98;;;;;;;;;;5072733;28;20020;-58
2023/12/28 01:45:00;;;;;;;10.60;10.10;;;;;;;;;;5073873;28;20491;-57
2023/12/28 01:47:26;;;;;;;10.65;10.15;;;;;;;;;;5072197;28;20048;-58
2023/12/28 01:49:52;;;;;;;10.93;10.43;;;;;;;;;;5073907;28;20025;-58
2023/12/28 01:52:17;;;;;;;10.50;10.00;;;;;;;;;;5073140;28;20537;-57
2023/12/28 01:54:43;;;;;;;11.32;10.73;;;;;;;;;;5071817;28;20045;-56
2023/12/28 01:57:09;;;;;;;11.52;10.93;;;;;;;;;;5075568;28;20484;-57
2023/12/28 01:59:34;;;;;;;11.70;11.10;;;;;;;;;;5074488;28;20087;-54
2023/12/28 02:02:00;;;;;;;11.73;11.13;;;;;;;;;;5073285;28;20013;-55
2023/12/28 02:04:28;;;;;;;11.23;10.68;;;;;;;;;;5073867;28;20039;-58
2023/12/28 02:06:58;;;;;;;11.32;10.77;;;;;;;;;;5064063;28;20121;-54
2023/12/28 02:09:23;;;;;;;11.43;10.82;;;;;;;;;;5071686;28;20020;-55
2023/12/28 02:11:49;;;;;;;10.90;10.40;;;;;;;;;;5074849;28;20082;-56
2023/12/28 02:14:14;;;;;;;10.70;10.20;;;;;;;;;;5072882;28;20434;-56
2023/12/28 02:16:44;;;;;;;11.15;10.65;;;;;;;;;;5067253;28;20051;-56
2023/12/28 02:19:30;;;;;;;11.45;10.85;;;;;;;;;;5070827;28;20476;-56
2023/12/28 02:21:55;;;;;;;11.13;10.63;;;;;;;;;;5069538;28;20025;-55
2023/12/28 02:24:21;;;;;;;11.50;10.90;;;;;;;;;;5071888;28;20263;-57
2023/12/28 02:26:46;;;;;;;11.10;10.60;;;;;;;;;;5069773;28;20028;-59
2023/12/28 02:29:11;;;;;;;11.82;11.23;;;;;;;;;;5072533;28;20017;-56
2023/12/28 02:31:41;;;;;;;11.73;11.13;;;;;;;;;;5070705;28;20016;-58
2023/12/28 02:34:11;;;;;;;11.00;10.50;;;;;;;;;;5068719;28;20016;-56
2023/12/28 02:36:38;;;;;;;11.70;11.10;;;;;;;;;;5070058;28;20016;-55
2023/12/28 02:39:04;;;;;;;11.43;10.85;;;;;;;;;;5072466;28;20050;-54
2023/12/28 02:41:30;;;;;;;11.30;10.80;;;;;;;;;;5073022;28;20017;-55
2023/12/28 02:43:55;;;;;;;11.18;10.68;;;;;;;;;;5072444;28;20488;-56
2023/12/28 02:46:21;;;;;;;12.02;11.43;;;;;;;;;;5072692;28;20494;-54
2023/12/28 02:48:46;;;;;;;11.85;11.25;;;;;;;;;;5073029;28;20025;-56
2023/12/28 02:51:11;;;;;;;11.27;10.68;;;;;;;;;;5072287;28;20028;-53
2023/12/28 02:53:37;;;;;;;10.82;10.32;;;;;;;;;;5072811;28;20017;-57
2023/12/28 02:56:02;;;;;;;10.95;10.45;;;;;;;;;;5073832;28;20027;-55
2023/12/28 02:58:28;;;;;;;11.68;11.07;;;;;;;;;;5064465;28;20384;-58
2023/12/28 03:00:53;;;;;;;11.00;10.50;;;;;;;;;;5072523;28;20028;-56
2023/12/28 03:03:18;;;;;;;11.63;11.02;;;;;;;;;;5070603;28;20046;-58
2023/12/28 03:05:44;;;;;;;10.93;10.43;;;;;;;;;;5070157;28;20012;-56
2023/12/28 03:08:09;;;;;;;11.40;10.82;;;;;;;;;;5069492;28;20027;-55
2023/12/28 03:10:34;;;;;;;11.40;10.80;;;;;;;;;;5066092;28;20090;-57
2023/12/28 03:13:00;;;;;;;11.13;10.63;;;;;;;;;;5070228;28;20029;-55
2023/12/28 03:15:26;;;;;;;11.55;10.95;;;;;;;;;;5068540;28;20036;-56
2023/12/28 03:17:51;;;;;;;11.90;11.30;;;;;;;;;;5070852;28;20467;-56
2023/12/28 03:20:16;;;;;;;10.95;10.45;;;;;;;;;;5075320;28;20017;-56
2023/12/28 03:22:42;;;;;;;11.07;10.57;;;;;;;;;;5066024;28;20484;-57
2023/12/28 03:25:07;;;;;;;10.57;10.07;;;;;;;;;;5070229;28;20025;-57
2023/12/28 03:27:32;;;;;;;10.70;10.20;;;;;;;;;;5074743;28;20020;-58
2023/12/28 03:29:58;;;;;;;10.43;9.93;;;;;;;;;;5071138;28;20056;-56
2023/12/28 03:32:23;;;;;;;11.20;10.70;;;;;;;;;;5073900;28;20024;-56
2023/12/28 03:34:49;;;;;;;11.57;10.98;;;;;;;;;;5071903;28;20237;-55
2023/12/28 03:37:14;;;;;;;11.27;10.70;;;;;;;;;;5066593;28;20074;-58
2023/12/28 03:39:39;;;;;;;11.60;11.00;;;;;;;;;;5071215;28;20028;-57
2023/12/28 03:42:05;;;;;;;11.25;10.70;;;;;;;;;;5070575;28;20024;-54
2023/12/28 03:44:30;;;;;;;11.70;11.10;;;;;;;;;;5067880;28;20017;-55
2023/12/28 03:46:56;;;;;;;11.00;10.50;;;;;;;;;;5069858;28;20047;-55
2023/12/28 03:49:21;;;;;;;11.55;10.95;;;;;;;;;;5071271;28;20054;-55
2023/12/28 03:51:50;;;;;;;10.70;10.20;;;;;;;;;;5067401;28;20054;-56
2023/12/28 03:54:16;;;;;;;11.27;10.77;;;;;;;;;;5069378;28;20067;-54
2023/12/28 03:56:43;;;;;;;10.55;10.05;;;;;;;;;;5071197;28;20056;-54
2023/12/28 03:59:09;;;;;;;11.60;11.00;;;;;;;;;;5069577;28;20028;-57
2023/12/28 04:01:35;;;;;;;11.30;10.70;;;;;;;;;;5073386;28;20407;-56
2023/12/28 04:04:00;;;;;;;11.63;11.02;;;;;;;;;;5071161;28;20031;-57
2023/12/28 04:06:25;;;;;;;11.77;11.18;;;;;;;;;;5066110;28;20397;-55
2023/12/28 04:08:51;;;;;;;11.05;10.55;;;;;;;;;;5067491;28;20396;-55
2023/12/28 04:11:16;;;;;;;11.18;10.63;;;;;;;;;;5069579;28;20020;-56
2023/12/28 04:13:41;;;;;;;11.30;10.70;;;;;;;;;;5071497;28;20430;-52
2023/12/28 04:16:09;;;;;;;11.10;10.60;;;;;;;;;;5060345;28;20103;-55
2023/12/28 04:18:34;;;;;;;11.45;10.85;;;;;;;;;;5068960;28;20786;-56
2023/12/28 04:21:00;;;;;;;10.60;10.10;;;;;;;;;;5071993;28;20503;-59
2023/12/28 04:23:25;;;;;;;11.13;10.55;;;;;;;;;;5067408;28;20016;-55
2023/12/28 04:25:50;;;;;;;10.38;9.88;;;;;;;;;;5070835;28;20165;-57
2023/12/28 04:28:16;;;;;;;10.40;9.90;;;;;;;;;;5071325;28;20028;-58
2023/12/28 04:30:41;;;;;;;10.88;10.38;;;;;;;;;;5070425;28;20578;-56
2023/12/28 04:33:06;;;;;;;11.52;10.93;;;;;;;;;;5070492;28;20032;-57
2023/12/28 04:35:31;;;;;;;11.70;11.10;;;;;;;;;;5063827;28;20415;-56
2023/12/28 04:37:57;;;;;;;11.48;10.88;;;;;;;;;;5067941;28;20028;-56
2023/12/28 04:40:22;;;;;;;11.13;10.55;;;;;;;;;;5070946;28;20379;-57
2023/12/28 04:42:48;;;;;;;11.65;11.05;;;;;;;;;;5070173;28;20386;-55
2023/12/28 04:45:13;;;;;;;11.50;10.90;;;;;;;;;;5070799;28;20494;-54
2023/12/28 04:47:39;;;;;;;11.68;11.07;;;;;;;;;;5068285;28;20024;-55
2023/12/28 04:50:04;;;;;;;11.07;10.57;;;;;;;;;;5070264;28;20024;-57
2023/12/28 04:52:30;;;;;;;11.00;10.50;;;;;;;;;;5064250;28;20031;-56
2023/12/28 04:54:55;;;;;;;10.73;10.23;;;;;;;;;;5070801;28;20052;-57
2023/12/28 04:57:20;;;;;;;11.23;10.65;;;;;;;;;;5068533;28;20024;-57
2023/12/28 04:59:46;;;;;;;11.45;10.85;;;;;;;;;;5068189;28;20069;-54
2023/12/28 05:02:11;;;;;;;11.82;11.23;;;;;;;;;;5064736;28;20021;-55
2023/12/28 05:04:38;;;;;;;11.18;10.68;;;;;;;;;;5067089;28;20024;-58
2023/12/28 05:07:03;;;;;;;11.70;11.10;;;;;;;;;;5066480;28;20021;-56
2023/12/28 05:09:29;;;;;;;11.50;10.90;;;;;;;;;;5059808;28;20040;-57
2023/12/28 05:11:54;;;;;;;11.07;10.57;;;;;;;;;;5069565;28;20016;-56
2023/12/28 05:14:19;;;;;;;10.57;10.07;;;;;;;;;;5070522;28;20024;-55
2023/12/28 05:16:45;;;;;;;11.00;10.50;;;;;;;;;;5072802;28;20079;-57
2023/12/28 05:19:10;;;;;;;11.88;11.27;;;;;;;;;;5067085;28;20016;-57
2023/12/28 05:21:35;;;;;;;10.90;10.40;;;;;;;;;;5070173;28;20491;-57
2023/12/28 05:24:01;;;;;;;11.48;10.88;;;;;;;;;;5073649;28;20103;-56
2023/12/28 05:26:27;;;;;;;11.55;10.95;;;;;;;;;;5074115;28;20021;-56
2023/12/28 05:28:52;;;;;;;11.07;10.57;;;;;;;;;;5070328;28;20480;-57
2023/12/28 05:31:17;;;;;;;11.63;11.02;;;;;;;;;;5073962;28;20100;-56
2023/12/28 05:33:43;;;;;;;11.80;11.20;;;;;;;;;;5072610;28;20016;-57
2023/12/28 05:36:08;;;;;;;11.70;11.10;;;;;;;;;;5073449;28;20019;-57
2023/12/28 05:38:33;;;;;;;11.65;11.05;;;;;;;;;;5073796;28;20492;-57
2023/12/28 05:40:59;;;;;;;10.60;10.10;;;;;;;;;;5074177;28;20095;-55
2023/12/28 05:43:24;;;;;;;11.02;10.52;;;;;;;;;;5074122;28;20021;-55
2023/12/28 05:45:50;;;;;;;11.00;10.50;;;;;;;;;;5071514;28;20066;-57
2023/12/28 05:48:15;;;;;;;11.02;10.52;;;;;;;;;;5071515;28;20017;-58
2023/12/28 05:50:40;;;;;;;11.52;10.93;;;;;;;;;;5075754;28;20027;-57
2023/12/28 05:53:06;;;;;;;11.27;10.73;;;;;;;;;;5070465;28;20524;-57
2023/12/28 05:55:31;;;;;;;11.63;11.02;;;;;;;;;;5074025;28;20099;-57
2023/12/28 05:57:57;;;;;;;11.52;10.93;;;;;;;;;;5072404;28;20028;-55
2023/12/28 06:00:22;;;;;;;11.00;10.50;;;;;;;;;;5072866;28;20120;-55
2023/12/28 06:02:51;;;;;;;11.32;10.75;;;;;;;;;;5072826;28;20024;-58
2023/12/28 06:05:16;;;;;;;11.43;10.82;;;;;;;;;;5073542;28;20021;-56
2023/12/28 06:07:42;;;;;;;11.70;11.10;;;;;;;;;;5072801;28;20044;-52
2023/12/28 06:10:07;;;;;;;10.85;10.35;;;;;;;;;;5068934;28;20491;-57
2023/12/28 06:12:33;;;;;;;11.00;10.50;;;;;;;;;;5071644;28;20026;-57
2023/12/28 06:14:59;;;;;;;10.50;10.00;;;;;;;;;;5071178;28;20070;-58
2023/12/28 06:17:24;;;;;;;10.48;9.98;;;;;;;;;;5072435;28;20415;-58
2023/12/28 06:19:50;;;;;;;10.00;9.52;;;;;;;;;;5072920;28;20135;-57
2023/12/28 06:22:16;;;;;;;10.40;9.90;;;;;;;;;;5071139;28;20015;-57
2023/12/28 06:24:41;;;;;;;10.93;10.43;;;;;;;;;;5066395;28;20037;-56
2023/12/28 06:27:06;;;;;;;10.95;10.45;;;;;;;;;;5065844;28;20399;-58
2023/12/28 06:29:32;;;;;;;11.88;11.27;;;;;;;;;;5070590;28;20445;-57
2023/12/28 06:31:57;;;;;;;11.50;10.90;;;;;;;;;;5064727;28;20074;-56
2023/12/28 06:34:22;;;;;;;11.77;11.18;;;;;;;;;;5069378;28;20031;-56
2023/12/28 06:36:48;;;;;;;9.75;9.35;;;;;;;;;;5072620;28;20108;-54
2023/12/28 06:39:13;;;;;;;9.90;9.50;;;;;;;;;;5064282;28;20029;-56
2023/12/28 06:41:38;;;;;;;10.63;10.13;;;;;;;;;;5070761;28;20085;-57
2023/12/28 06:44:04;;;;;;;10.35;9.85;;;;;;;;;;5071676;28;20012;-57
2023/12/28 06:46:29;;;;;;;10.80;10.30;;;;;;;;;;5072055;28;20031;-57
2023/12/28 06:48:55;;;;;;;11.25;10.75;;;;;;;;;;5068798;28;20032;-58
2023/12/28 06:51:21;;;;;;;11.43;10.88;;;;;;;;;;5075655;28;20024;-58
2023/12/28 06:53:47;;;;;;;11.77;11.18;;;;;;;;;;5071408;28;20023;-59
2023/12/28 06:56:12;;;;;;;12.23;11.63;;;;;;;;;;5069705;28;20116;-58
2023/12/28 06:58:38;;;;;;;11.80;11.23;;;;;;;;;;5072404;28;20028;-57
2023/12/28 07:01:06;;;;;;;11.55;11.05;;;;;;;;;;5068275;28;20104;-58
2023/12/28 07:03:34;;;;;;;11.40;10.90;;;;;;;;;;5072847;28;20129;-57
2023/12/28 07:06:00;;;;;;;11.57;11.07;;;;;;;;;;5070969;28;20021;-59
2023/12/28 07:08:25;;;;;;;11.77;11.23;;;;;;;;;;5062541;28;20028;-56
2023/12/28 07:10:50;;;;;;;11.25;10.75;;;;;;;;;;5068755;28;20028;-59
2023/12/28 07:13:16;;;;;;;12.07;11.48;;;;;;;;;;5064086;28;20021;-57
2023/12/28 07:15:41;;;;;;;11.38;10.88;;;;;;;;;;5072458;28;20035;-57
2023/12/28 07:18:07;;;;;;;12.05;11.45;;;;;;;;;;5070366;28;20131;-57
2023/12/28 07:20:32;;;;;;;12.32;11.73;;;;;;;;;;5071586;28;20039;-58
2023/12/28 07:22:57;;;;;;;12.40;11.80;;;;;;;;;;5065523;28;20021;-60
2023/12/28 07:25:22;;;;;;;11.90;11.30;;;;;;;;;;5067534;28;20032;-58
2023/12/28 07:27:48;;;;;;;11.80;11.20;;;;;;;;;;5070456;28;20031;-58
2023/12/28 07:30:14;;;;;;;11.40;10.90;;;;;;;;;;5069788;28;20065;-59
2023/12/28 07:32:39;;;;;;;11.38;10.88;;;;;;;;;;5069387;28;20025;-57
2023/12/28 07:35:04;;;;;;;11.82;11.23;;;;;;;;;;5068246;28;20494;-58
2023/12/28 07:37:30;;;;;;;11.23;10.73;;;;;;;;;;5070750;28;20027;-58
2023/12/28 07:39:55;;;;;;;10.98;10.48;;;;;;;;;;5067990;28;20364;-59
2023/12/28 07:42:20;;;;;;;11.00;10.50;;;;;;;;;;5067574;28;20051;-57
2023/12/28 07:44:46;;;;;;;11.20;10.70;;;;;;;;;;5068549;28;20023;-58
2023/12/28 07:47:12;;;;;;;11.55;11.02;;;;;;;;;;5072741;28;20033;-59
2023/12/28 07:49:37;;;;;;;11.20;10.70;;;;;;;;;;5074626;28;20118;-58
2023/12/28 07:52:03;;;;;;;11.00;10.50;;;;;;;;;;5072412;28;20024;-58
2023/12/28 07:54:28;;;;;;;11.27;10.77;;;;;;;;;;5068319;28;20020;-56
2023/12/28 07:56:54;;;;;;;11.85;11.25;;;;;;;;;;5071554;28;20027;-54
2023/12/28 07:59:19;;;;;;;11.18;10.68;;;;;;;;;;5070745;28;20028;-59
2023/12/28 08:01:45;;;;;;;11.98;11.38;;;;;;;;;;5068075;28;20035;-56
2023/12/28 08:04:11;;;;;;;12.65;12.05;;;;;;;;;;5071386;28;20131;-57
2023/12/28 08:06:36;;;;;;;12.07;11.48;;;;;;;;;;5069811;28;20040;-60
2023/12/28 08:09:01;;;;;;;11.80;11.30;;;;;;;;;;5066346;28;20058;-59
2023/12/28 08:11:29;;;;;;;12.40;11.80;;;;;;;;;;5064948;28;20104;-60
2023/12/28 08:13:55;;;;;;;12.90;12.30;;;;;;;;;;5068335;28;20021;-58
2023/12/28 08:16:20;;;;;;;12.18;11.57;;;;;;;;;;5068235;28;20052;-57
2023/12/28 08:18:46;;;;;;;12.52;11.93;;;;;;;;;;5067417;28;20372;-56
2023/12/28 08:21:11;;;;;;;12.60;12.00;;;;;;;;;;5070959;28;20428;-57
2023/12/28 08:23:38;;;;;;;12.70;12.10;;;;;;;;;;5070486;28;20044;-57
2023/12/28 08:26:04;;;;;;;12.10;11.50;;;;;;;;;;5068491;28;20452;-58
2023/12/28 08:28:30;;;;;;;12.35;11.75;;;;;;;;;;5068812;28;20104;-58
2023/12/28 08:30:56;;;;;;;12.65;12.05;;;;;;;;;;5070626;28;20020;-56
2023/12/28 08:33:21;;;;;;;12.32;11.73;;;;;;;;;;5062476;28;20028;-57
2023/12/28 08:35:47;;;;;;;12.55;11.95;;;;;;;;;;5069350;28;20017;-60
2023/12/28 08:38:12;;;;;;;12.10;11.50;;;;;;;;;;5070100;28;20095;-59
2023/12/28 08:40:37;;;;;;;12.85;12.25;;;;;;;;;;5065016;28;20052;-57
2023/12/28 08:43:03;;;;;;;11.88;11.38;;;;;;;;;;5068054;28;20044;-57
2023/12/28 08:45:28;;;;;;;13.30;12.65;;;;;;;;;;5070585;28;20020;-57
2023/12/28 08:47:53;;;;;;;12.27;11.68;;;;;;;;;;5059755;28;20029;-58
2023/12/28 08:50:19;;;;;;;12.05;11.48;;;;;;;;;;5069742;28;20029;-58
2023/12/28 08:52:44;;;;;;;11.80;11.30;;;;;;;;;;5061363;28;20562;-57
2023/12/28 08:55:10;;;;;;;11.90;11.40;;;;;;;;;;5069406;28;20027;-57
2023/12/28 08:57:35;;;;;;;11.98;11.45;;;;;;;;;;5072915;28;20032;-58
2023/12/28 09:00:02;;;;;;;12.30;11.70;;;;;;;;;;5072624;28;20103;-57
2023/12/28 09:02:28;;;;;;;12.57;11.98;;;;;;;;;;5062021;28;20088;-59
2023/12/28 09:04:53;;;;;;;12.77;12.18;;;;;;;;;;5074401;28;20150;-58
2023/12/28 09:07:19;;;;;;;12.95;12.35;;;;;;;;;;5066811;28;20599;-58
2023/12/28 09:09:44;;;;;;;12.23;11.63;;;;;;;;;;5065588;28;20025;-59
2023/12/28 09:12:10;;;;;;;12.30;11.70;;;;;;;;;;5067972;28;20012;-59
2023/12/28 09:14:36;;;;;;;12.85;12.25;;;;;;;;;;5076117;28;20027;-58
2023/12/28 09:17:01;;;;;;;13.05;12.45;;;;;;;;;;5078809;28;20361;-60
2023/12/28 09:19:27;;;;;;;12.35;11.75;;;;;;;;;;5071705;28;20024;-58
2023/12/28 09:21:52;;;;;;;12.70;12.10;;;;;;;;;;5073244;28;20024;-57
2023/12/28 09:24:18;;;;;;;11.93;11.38;;;;;;;;;;5072396;28;20480;-56
2023/12/28 09:26:44;;;;;;;12.77;12.18;;;;;;;;;;5073482;28;20013;-57
2023/12/28 09:29:09;;;;;;;13.32;12.63;;;;;;;;;;5073595;28;20067;-56
2023/12/28 09:31:34;;;;;;;12.60;12.00;;;;;;;;;;5073216;28;20028;-58
2023/12/28 09:34:00;;;;;;;12.40;11.80;;;;;;;;;;5071675;28;20520;-57
2023/12/28 09:36:25;;;;;;;12.80;12.20;;;;;;;;;;5073206;28;20025;-57
2023/12/28 09:38:51;;;;;;;12.10;11.50;;;;;;;;;;5073652;28;20024;-57
2023/12/28 09:41:18;;;;;;;12.15;11.55;;;;;;;;;;5070512;28;20028;-58
2023/12/28 09:44:03;;;;;;;12.45;11.85;;;;;;;;;;5070750;28;20017;-58
2023/12/28 09:46:29;;;;;;;12.70;12.10;;;;;;;;;;5055613;28;20029;-55
2023/12/28 09:48:56;;;;;;;12.90;12.23;;;;;;;;;;5073583;28;20146;-57
2023/12/28 09:51:21;;;;;;;12.40;11.80;;;;;;;;;;5075452;28;20035;-59
2023/12/28 09:53:46;;;;;;;12.82;12.23;;;;;;;;;;5073263;28;20050;-59
2023/12/28 09:56:14;;;;;;;12.25;11.65;;;;;;;;;;5061720;28;20105;-57
2023/12/28 09:58:39;;;;;;;12.68;12.07;;;;;;;;;;5067882;28;20074;-57
2023/12/28 10:01:05;;;;;;;12.18;11.57;;;;;;;;;;5058859;28;20013;-58
2023/12/28 10:03:30;;;;;;;12.70;12.10;;;;;;;;;;5068393;28;20016;-57
2023/12/28 10:05:55;;;;;;;12.43;11.82;;;;;;;;;;5068444;28;20024;-60
2023/12/28 10:08:21;;;;;;;12.40;11.80;;;;;;;;;;5072632;28;20031;-57
2023/12/28 10:10:50;;;;;;;11.80;11.30;;;;;;;;;;5068200;28;20076;-58
2023/12/28 10:13:16;;;;;;;11.63;11.13;;;;;;;;;;5072726;28;20051;-59
2023/12/28 10:15:43;;;;;;;11.90;11.30;;;;;;;;;;5073396;28;20056;-60
2023/12/28 10:18:08;;;;;;;13.15;12.45;;;;;;;;;;5072795;28;20045;-58
2023/12/28 10:20:34;;;;;;;12.10;11.50;;;;;;;;;;5072972;28;20679;-59
2023/12/28 10:23:00;;;;;;;11.75;11.18;;;;;;;;;;5073042;28;20025;-59
2023/12/28 10:25:26;;;;;;;12.23;11.63;;;;;;;;;;5068368;28;20070;-57
2023/12/28 10:27:52;;;;;;;12.52;11.93;;;;;;;;;;5077325;28;20492;-58
2023/12/28 10:30:19;;;;;;;11.98;11.38;;;;;;;;;;5070395;28;20085;-59
2023/12/28 10:32:45;;;;;;;12.18;11.57;;;;;;;;;;5067143;28;20027;-58
2023/12/28 10:35:10;;;;;;;11.93;11.35;;;;;;;;;;5071010;28;20024;-59
2023/12/28 10:37:36;;;;;;;12.00;11.40;;;;;;;;;;5070325;28;20036;-59
2023/12/28 10:40:03;;;;;;;11.80;11.20;;;;;;;;;;5072679;28;20035;-57
2023/12/28 10:42:31;;;;;;;11.73;11.15;;;;;;;;;;5065030;28;20021;-58
2023/12/28 10:45:06;;;;;;;11.93;11.32;;;;;;;;;;5070824;28;20017;-56
2023/12/28 10:47:38;;;;;;;12.27;11.68;;;;;;;;;;5062682;28;20020;-58
2023/12/28 10:50:05;;;;;;;12.52;11.93;;;;;;;;;;5072467;28;20116;-59
2023/12/28 10:52:30;;;;;;;12.18;11.57;;;;;;;;;;5072481;28;20021;-57
2023/12/28 10:55:00;;;;;;;11.48;10.98;;;;;;;;;;5075979;28;20089;-55
2023/12/28 10:57:40;;;;;;;12.05;11.45;;;;;;;;;;5071733;28;20160;-55
2023/12/28 11:00:07;;;;;;;12.30;11.70;;;;;;;;;;5070534;28;20019;-56
2023/12/28 11:02:37;;;;;;;11.52;11.02;;;;;;;;;;5062581;28;20086;-57
2023/12/28 11:05:04;;;;;;;11.43;10.93;;;;;;;;;;5072224;28;20019;-56
2023/12/28 11:07:32;;;;;;;11.60;11.05;;;;;;;;;;5066389;28;20020;-55
2023/12/28 11:10:00;;;;;;;11.98;11.38;;;;;;;;;;5070744;28;20066;-58
2023/12/28 11:12:26;;;;;;;12.25;11.65;;;;;;;;;;5070581;28;20531;-57
2023/12/28 11:14:53;;;;;;;11.70;11.15;;;;;;;;;;5068441;28;20024;-54
2023/12/28 11:17:19;;;;;;;11.43;10.93;;;;;;;;;;5072058;28;20083;-58
2023/12/28 11:19:44;;;;;;;12.90;12.25;;;;;;;;;;5066760;28;20025;-59
2023/12/28 11:22:10;;;;;;;12.00;11.40;;;;;;;;;;5070733;28;20149;-59
2023/12/28 11:24:36;;;;;;;12.30;11.70;;;;;;;;;;5067638;28;20056;-58
2023/12/28 11:27:04;;;;;;;13.20;12.50;;;;;;;;;;5068895;28;20425;-58
2023/12/28 11:29:31;;;;;;;12.30;11.70;;;;;;;;;;5070565;28;20151;-56
2023/12/28 11:32:00;;;;;;;12.32;11.73;;;;;;;;;;5071924;28;20468;-58
2023/12/28 11:34:27;;;;;;;11.75;11.23;;;;;;;;;;5062102;28;20032;-60
2023/12/28 11:36:57;;;;;;;12.25;11.65;;;;;;;;;;5070546;28;20044;-57
2023/12/28 11:39:28;;;;;;;11.98;11.40;;;;;;;;;;5065593;28;20115;-59
2023/12/28 11:42:00;;;;;;;11.57;11.07;;;;;;;;;;5053347;28;20337;-56
2023/12/28 11:44:26;;;;;;;11.90;11.30;;;;;;;;;;5067954;28;20422;-56
2023/12/28 11:46:51;;;;;;;12.05;11.45;;;;;;;;;;5068246;28;20103;-57
2023/12/28 11:49:24;;;;;;;11.50;11.00;;;;;;;;;;5077186;28;20095;-59
2023/12/28 11:51:54;;;;;;;11.82;11.23;;;;;;;;;;5069438;28;20021;-59
2023/12/28 11:54:19;;;;;;;11.70;11.20;;;;;;;;;;5068403;28;20020;-58
2023/12/28 11:56:44;;;;;;;11.68;11.18;;;;;;;;;;5067873;28;20070;-57
2023/12/28 11:59:10;;;;;;;11.57;11.07;;;;;;;;;;5071614;28;20103;-56
2023/12/28 12:01:36;;;;;;;11.95;11.35;;;;;;;;;;5065675;28;20070;-57
2023/12/28 12:04:01;;;;;;;11.45;10.95;;;;;;;;;;5069870;28;20105;-57
2023/12/28 12:06:26;;;;;;;12.15;11.55;;;;;;;;;;5063008;28;20017;-58
2023/12/28 12:08:51;;;;;;;12.52;11.93;;;;;;;;;;5071013;28;20043;-56
2023/12/28 12:11:20;;;;;;;11.75;11.23;;;;;;;;;;5068915;28;20074;-58
2023/12/28 12:13:46;;;;;;;13.00;12.38;;;;;;;;;;5070785;28;20162;-57
2023/12/28 12:16:13;;;;;;;12.07;11.48;;;;;;;;;;5070212;28;20107;-58
2023/12/28 12:18:38;;;;;;;12.40;11.80;;;;;;;;;;5070658;28;20544;-56
2023/12/28 12:21:06;;;;;;;12.10;11.50;;;;;;;;;;5068429;28;20099;-57
2023/12/28 12:23:31;;;;;;;12.43;11.82;;;;;;;;;;5069034;28;20516;-58
2023/12/28 12:25:57;;;;;;;12.57;11.98;;;;;;;;;;5063842;28;20033;-57
2023/12/28 12:28:22;;;;;;;12.57;11.98;;;;;;;;;;5070160;28;20025;-56
2023/12/28 12:30:55;;;;;;;11.73;11.23;;;;;;;;;;5055722;28;20021;-57
2023/12/28 12:33:21;;;;;;;12.00;11.40;;;;;;;;;;5070529;28;20028;-55
2023/12/28 12:35:47;;;;;;;11.98;11.38;;;;;;;;;;5068977;28;20016;-56
2023/12/28 12:38:12;;;;;;;12.48;11.88;;;;;;;;;;5069775;28;20028;-57
2023/12/28 12:40:37;;;;;;;12.77;12.18;;;;;;;;;;5063332;28;20499;-57
2023/12/28 12:43:03;;;;;;;13.18;12.48;;;;;;;;;;5061942;28;20021;-59
2023/12/28 12:45:28;;;;;;;12.65;12.05;;;;;;;;;;5066540;28;20031;-59
2023/12/28 12:47:54;;;;;;;12.95;12.32;;;;;;;;;;5067931;28;20025;-58
2023/12/28 12:50:19;;;;;;;12.45;11.85;;;;;;;;;;5066924;28;20029;-57
2023/12/28 12:52:45;;;;;;;12.20;11.60;;;;;;;;;;5069708;28;20085;-58
2023/12/28 12:55:11;;;;;;;13.10;12.45;;;;;;;;;;5069573;28;20411;-57
2023/12/28 12:57:37;;;;;;;11.60;11.10;;;;;;;;;;5064803;28;20059;-57
2023/12/28 13:00:05;;;;;;;12.32;11.73;;;;;;;;;;5068621;28;20559;-57
2023/12/28 13:02:33;;;;;;;12.43;11.82;;;;;;;;;;5059856;28;20021;-59
2023/12/28 13:04:58;;;;;;;12.45;11.85;;;;;;;;;;5070355;28;20017;-58
2023/12/28 13:07:24;;;;;;;13.07;12.40;;;;;;;;;;5067091;28;20023;-58
2023/12/28 13:09:49;;;;;;;12.70;12.10;;;;;;;;;;5065895;28;20074;-60
2023/12/28 13:12:14;;;;;;;12.80;12.20;;;;;;;;;;5066381;28;20534;-58
2023/12/28 13:14:40;;;;;;;12.70;12.10;;;;;;;;;;5063501;28;20383;-56
2023/12/28 13:17:05;;;;;;;12.50;11.90;;;;;;;;;;5063049;28;20048;-59
2023/12/28 13:19:30;;;;;;;12.70;12.10;;;;;;;;;;5070380;28;20395;-57
2023/12/28 13:21:56;;;;;;;12.95;12.35;;;;;;;;;;5062640;28;20100;-56
2023/12/28 13:24:21;;;;;;;12.10;11.50;;;;;;;;;;5068211;28;20048;-57
2023/12/28 13:26:47;;;;;;;12.35;11.75;;;;;;;;;;5054839;28;20028;-57
2023/12/28 13:29:13;;;;;;;12.05;11.45;;;;;;;;;;5070375;28;20032;-56
2023/12/28 13:31:39;;;;;;;12.10;11.50;;;;;;;;;;5061822;28;20109;-58
2023/12/28 13:34:04;;;;;;;11.43;10.93;;;;;;;;;;5067292;28;20028;-58
2023/12/28 13:36:30;;;;;;;12.05;11.45;;;;;;;;;;5069293;28;20028;-58
2023/12/28 13:38:56;;;;;;;12.70;12.10;;;;;;;;;;5066570;28;20025;-58
2023/12/28 13:41:21;;;;;;;12.30;11.70;;;;;;;;;;5066438;28;20032;-56
2023/12/28 13:43:46;;;;;;;11.68;11.18;;;;;;;;;;5078508;28;20026;-57
2023/12/28 13:46:12;;;;;;;12.45;11.85;;;;;;;;;;5070344;28;20028;-57
2023/12/28 13:48:39;;;;;;;12.27;11.68;;;;;;;;;;5064894;28;20032;-57
2023/12/28 13:51:05;;;;;;;12.23;11.63;;;;;;;;;;5070389;28;20412;-56
2023/12/28 13:53:34;;;;;;;12.40;11.80;;;;;;;;;;5056902;28;20040;-56
2023/12/28 13:55:59;;;;;;;12.48;11.88;;;;;;;;;;5068537;28;20057;-57
2023/12/28 13:58:24;;;;;;;12.38;11.77;;;;;;;;;;5065809;28;20050;-60
2023/12/28 14:00:49;;;;;;;12.15;11.55;;;;;;;;;;5063932;28;20043;-58
2023/12/28 14:03:15;;;;;;;11.98;11.38;;;;;;;;;;5070583;28;20017;-57
2023/12/28 14:05:42;;;;;;;12.27;11.68;;;;;;;;;;5072025;28;20024;-58
2023/12/28 14:08:07;;;;;;;12.27;11.68;;;;;;;;;;5069386;28;20103;-58
2023/12/28 14:10:33;;;;;;;12.02;11.43;;;;;;;;;;5073007;28;20092;-57